Terminal Aerodrome Forecast
Issued by NWS

Home | Current Version | Previous Version | Graphics & Text | Print | Product List | Glossary On
Versions: 1 2 3 4 5 6 7 8 9 10 11 12 13 14 15 16 17
000
FTUS43 KBIS 231738
TAFDIK
TAF
KDIK 231738Z 2318/2418 31020G28KT P6SM SKC
     FM240200 28008KT P6SM SKC
     FM241400 29019G26KT P6SM BKN015
     FM241700 29019G27KT P6SM BKN025=

USA.gov is the U.S. government's official web portal to all federal, state and local government web resources and services.